sensor_id;sensor_type;location;lat;lon;timestamp;temperature;humidity
1680;DHT22;838;51.794;12.258;2023-08-20T00:01:38;27.80;15.10
1680;DHT22;838;51.794;12.258;2023-08-20T00:04:04;27.80;15.90
1680;DHT22;838;51.794;12.258;2023-08-20T00:06:31;27.50;17.50
1680;DHT22;838;51.794;12.258;2023-08-20T00:08:56;27.30;18.50
1680;DHT22;838;51.794;12.258;2023-08-20T00:11:22;27.10;20.40
1680;DHT22;838;51.794;12.258;2023-08-20T00:13:48;26.90;22.20
1680;DHT22;838;51.794;12.258;2023-08-20T00:16:13;26.80;23.70
1680;DHT22;838;51.794;12.258;2023-08-20T00:18:40;26.70;24.40
1680;DHT22;838;51.794;12.258;2023-08-20T00:21:06;26.50;26.70
1680;DHT22;838;51.794;12.258;2023-08-20T00:23:32;26.30;28.70
1680;DHT22;838;51.794;12.258;2023-08-20T00:25:58;26.20;30.30
1680;DHT22;838;51.794;12.258;2023-08-20T00:28:24;26.00;31.90
1680;DHT22;838;51.794;12.258;2023-08-20T00:30:49;25.80;35.70
1680;DHT22;838;51.794;12.258;2023-08-20T00:33:16;25.70;36.90
1680;DHT22;838;51.794;12.258;2023-08-20T00:35:42;25.70;37.00
1680;DHT22;838;51.794;12.258;2023-08-20T00:38:08;25.70;36.10
1680;DHT22;838;51.794;12.258;2023-08-20T00:40:33;25.70;35.40
1680;DHT22;838;51.794;12.258;2023-08-20T00:42:59;25.60;36.00
1680;DHT22;838;51.794;12.258;2023-08-20T00:45:26;25.40;37.10
1680;DHT22;838;51.794;12.258;2023-08-20T00:47:52;25.20;38.50
1680;DHT22;838;51.794;12.258;2023-08-20T00:50:19;25.20;38.10
1680;DHT22;838;51.794;12.258;2023-08-20T00:52:45;25.20;38.30
1680;DHT22;838;51.794;12.258;2023-08-20T00:55:12;25.20;37.60
1680;DHT22;838;51.794;12.258;2023-08-20T00:57:41;25.20;37.80
1680;DHT22;838;51.794;12.258;2023-08-20T01:00:08;25.20;37.50
1680;DHT22;838;51.794;12.258;2023-08-20T01:02:38;25.20;37.20
1680;DHT22;838;51.794;12.258;2023-08-20T01:05:05;25.10;39.00
1680;DHT22;838;51.794;12.258;2023-08-20T01:07:43;25.10;39.10
1680;DHT22;838;51.794;12.258;2023-08-20T01:13:09;24.90;40.50
1680;DHT22;838;51.794;12.258;2023-08-20T01:15:35;24.90;41.50
1680;DHT22;838;51.794;12.258;2023-08-20T01:18:01;24.90;42.30
1680;DHT22;838;51.794;12.258;2023-08-20T01:20:31;24.90;42.40
1680;DHT22;838;51.794;12.258;2023-08-20T01:26:06;24.90;42.20
1680;DHT22;838;51.794;12.258;2023-08-20T01:28:33;24.70;44.70
1680;DHT22;838;51.794;12.258;2023-08-20T01:31:00;24.60;47.90
1680;DHT22;838;51.794;12.258;2023-08-20T01:33:26;24.50;50.60
1680;DHT22;838;51.794;12.258;2023-08-20T01:35:53;24.50;51.50
1680;DHT22;838;51.794;12.258;2023-08-20T01:38:19;24.40;52.60
1680;DHT22;838;51.794;12.258;2023-08-20T01:40:45;24.30;54.50
1680;DHT22;838;51.794;12.258;2023-08-20T01:43:11;24.20;55.40
1680;DHT22;838;51.794;12.258;2023-08-20T01:45:37;24.20;56.30
1680;DHT22;838;51.794;12.258;2023-08-20T01:48:02;24.30;55.70
1680;DHT22;838;51.794;12.258;2023-08-20T01:50:32;24.30;55.90
1680;DHT22;838;51.794;12.258;2023-08-20T01:52:57;24.30;55.60
1680;DHT22;838;51.794;12.258;2023-08-20T01:55:23;24.30;56.10
1680;DHT22;838;51.794;12.258;2023-08-20T01:57:49;24.30;57.50
1680;DHT22;838;51.794;12.258;2023-08-20T02:00:14;24.10;59.50
1680;DHT22;838;51.794;12.258;2023-08-20T02:02:40;24.00;61.30
1680;DHT22;838;51.794;12.258;2023-08-20T02:05:06;23.80;64.10
1680;DHT22;838;51.794;12.258;2023-08-20T02:07:32;23.70;65.30
1680;DHT22;838;51.794;12.258;2023-08-20T02:09:58;23.70;66.30
1680;DHT22;838;51.794;12.258;2023-08-20T02:12:25;23.70;66.70
1680;DHT22;838;51.794;12.258;2023-08-20T02:14:51;23.70;67.50
1680;DHT22;838;51.794;12.258;2023-08-20T02:17:16;23.70;66.80
1680;DHT22;838;51.794;12.258;2023-08-20T02:19:42;23.70;67.40
1680;DHT22;838;51.794;12.258;2023-08-20T02:22:08;23.60;68.80
1680;DHT22;838;51.794;12.258;2023-08-20T02:24:33;23.60;69.70
1680;DHT22;838;51.794;12.258;2023-08-20T02:26:59;23.50;71.60
1680;DHT22;838;51.794;12.258;2023-08-20T02:29:25;23.50;72.10
1680;DHT22;838;51.794;12.258;2023-08-20T02:31:50;23.40;73.00
1680;DHT22;838;51.794;12.258;2023-08-20T02:34:16;23.40;73.60
1680;DHT22;838;51.794;12.258;2023-08-20T02:36:42;23.40;73.80
1680;DHT22;838;51.794;12.258;2023-08-20T02:39:08;23.40;74.00
1680;DHT22;838;51.794;12.258;2023-08-20T02:41:34;23.40;74.40
1680;DHT22;838;51.794;12.258;2023-08-20T02:44:02;23.40;75.10
1680;DHT22;838;51.794;12.258;2023-08-20T02:46:28;23.30;74.90
1680;DHT22;838;51.794;12.258;2023-08-20T02:48:53;23.30;76.00
1680;DHT22;838;51.794;12.258;2023-08-20T02:51:19;23.20;76.30
1680;DHT22;838;51.794;12.258;2023-08-20T02:53:45;23.30;76.00
1680;DHT22;838;51.794;12.258;2023-08-20T02:56:11;23.20;76.50
1680;DHT22;838;51.794;12.258;2023-08-20T02:58:36;23.30;76.40
1680;DHT22;838;51.794;12.258;2023-08-20T03:01:02;23.30;77.00
1680;DHT22;838;51.794;12.258;2023-08-20T03:03:28;23.20;76.90
1680;DHT22;838;51.794;12.258;2023-08-20T03:05:54;23.30;77.40
1680;DHT22;838;51.794;12.258;2023-08-20T03:08:19;23.20;77.40
1680;DHT22;838;51.794;12.258;2023-08-20T03:10:45;23.20;77.30
1680;DHT22;838;51.794;12.258;2023-08-20T03:13:11;23.20;77.70
1680;DHT22;838;51.794;12.258;2023-08-20T03:15:36;23.20;78.60
1680;DHT22;838;51.794;12.258;2023-08-20T03:18:03;23.10;79.90
1680;DHT22;838;51.794;12.258;2023-08-20T03:20:29;23.10;81.50
1680;DHT22;838;51.794;12.258;2023-08-20T03:22:57;23.00;82.50
1680;DHT22;838;51.794;12.258;2023-08-20T03:25:23;23.00;82.80
1680;DHT22;838;51.794;12.258;2023-08-20T03:27:51;23.00;84.00
1680;DHT22;838;51.794;12.258;2023-08-20T03:30:17;23.00;84.30
1680;DHT22;838;51.794;12.258;2023-08-20T03:32:43;23.00;85.00
1680;DHT22;838;51.794;12.258;2023-08-20T03:35:09;23.00;85.70
1680;DHT22;838;51.794;12.258;2023-08-20T03:37:34;22.90;87.10
1680;DHT22;838;51.794;12.258;2023-08-20T03:40:00;22.90;87.10
1680;DHT22;838;51.794;12.258;2023-08-20T03:42:26;22.90;87.70
1680;DHT22;838;51.794;12.258;2023-08-20T03:44:51;23.00;86.20
1680;DHT22;838;51.794;12.258;2023-08-20T03:47:17;23.10;86.30
1680;DHT22;838;51.794;12.258;2023-08-20T03:49:46;23.10;85.10
1680;DHT22;838;51.794;12.258;2023-08-20T03:52:13;23.10;84.70
1680;DHT22;838;51.794;12.258;2023-08-20T03:54:39;23.10;84.60
1680;DHT22;838;51.794;12.258;2023-08-20T03:57:05;23.10;85.50
1680;DHT22;838;51.794;12.258;2023-08-20T03:59:30;23.10;85.20
1680;DHT22;838;51.794;12.258;2023-08-20T04:01:57;23.20;85.20
1680;DHT22;838;51.794;12.258;2023-08-20T04:04:22;23.10;84.30
1680;DHT22;838;51.794;12.258;2023-08-20T04:06:48;23.10;84.50
1680;DHT22;838;51.794;12.258;2023-08-20T04:09:14;23.10;85.10
1680;DHT22;838;51.794;12.258;2023-08-20T04:11:40;23.20;83.70
1680;DHT22;838;51.794;12.258;2023-08-20T04:14:05;23.20;84.20
1680;DHT22;838;51.794;12.258;2023-08-20T04:16:31;23.10;84.20
1680;DHT22;838;51.794;12.258;2023-08-20T04:18:57;23.00;85.40
1680;DHT22;838;51.794;12.258;2023-08-20T04:21:23;23.00;86.20
1680;DHT22;838;51.794;12.258;2023-08-20T04:23:48;22.90;86.60
1680;DHT22;838;51.794;12.258;2023-08-20T04:26:14;22.90;86.10
1680;DHT22;838;51.794;12.258;2023-08-20T04:28:40;22.90;86.10
1680;DHT22;838;51.794;12.258;2023-08-20T04:31:05;22.90;86.80
1680;DHT22;838;51.794;12.258;2023-08-20T04:33:31;23.00;85.90
1680;DHT22;838;51.794;12.258;2023-08-20T04:35:57;23.00;85.30
1680;DHT22;838;51.794;12.258;2023-08-20T04:38:22;23.00;86.20
1680;DHT22;838;51.794;12.258;2023-08-20T04:40:49;23.00;86.20
1680;DHT22;838;51.794;12.258;2023-08-20T04:43:15;22.90;87.00
1680;DHT22;838;51.794;12.258;2023-08-20T04:45:41;22.90;86.90
1680;DHT22;838;51.794;12.258;2023-08-20T04:48:07;23.00;86.90
1680;DHT22;838;51.794;12.258;2023-08-20T04:50:33;22.90;86.40
1680;DHT22;838;51.794;12.258;2023-08-20T04:52:59;23.00;86.80
1680;DHT22;838;51.794;12.258;2023-08-20T04:55:28;23.00;86.60
1680;DHT22;838;51.794;12.258;2023-08-20T04:57:54;22.90;86.90
1680;DHT22;838;51.794;12.258;2023-08-20T05:00:21;22.90;87.50
1680;DHT22;838;51.794;12.258;2023-08-20T05:02:49;22.90;88.30
1680;DHT22;838;51.794;12.258;2023-08-20T05:05:14;22.80;88.10
1680;DHT22;838;51.794;12.258;2023-08-20T05:07:40;22.90;87.40
1680;DHT22;838;51.794;12.258;2023-08-20T05:10:09;22.90;87.90
1680;DHT22;838;51.794;12.258;2023-08-20T05:12:36;22.90;87.80
1680;DHT22;838;51.794;12.258;2023-08-20T05:15:02;23.10;86.60
1680;DHT22;838;51.794;12.258;2023-08-20T05:17:28;23.10;83.50
1680;DHT22;838;51.794;12.258;2023-08-20T05:19:54;23.20;81.90
1680;DHT22;838;51.794;12.258;2023-08-20T05:22:23;23.10;82.10
1680;DHT22;838;51.794;12.258;2023-08-20T05:24:48;23.10;80.50
1680;DHT22;838;51.794;12.258;2023-08-20T05:27:15;23.00;80.10
1680;DHT22;838;51.794;12.258;2023-08-20T05:29:42;23.10;78.00
1680;DHT22;838;51.794;12.258;2023-08-20T05:32:08;23.10;77.70
1680;DHT22;838;51.794;12.258;2023-08-20T05:34:34;23.40;72.00
1680;DHT22;838;51.794;12.258;2023-08-20T05:37:00;23.30;69.00
1680;DHT22;838;51.794;12.258;2023-08-20T05:39:26;23.40;69.00
1680;DHT22;838;51.794;12.258;2023-08-20T05:41:55;23.20;61.00
1680;DHT22;838;51.794;12.258;2023-08-20T05:44:21;23.10;58.10
1680;DHT22;838;51.794;12.258;2023-08-20T05:46:47;23.10;55.60
1680;DHT22;838;51.794;12.258;2023-08-20T05:49:14;23.10;55.80
1680;DHT22;838;51.794;12.258;2023-08-20T05:51:45;23.00;55.70
1680;DHT22;838;51.794;12.258;2023-08-20T05:54:10;23.00;54.40
1680;DHT22;838;51.794;12.258;2023-08-20T05:56:37;23.00;51.10
1680;DHT22;838;51.794;12.258;2023-08-20T05:59:03;23.10;53.50
1680;DHT22;838;51.794;12.258;2023-08-20T06:01:29;23.30;51.80
1680;DHT22;838;51.794;12.258;2023-08-20T06:03:54;23.40;48.10
1680;DHT22;838;51.794;12.258;2023-08-20T06:06:21;23.30;47.10
1680;DHT22;838;51.794;12.258;2023-08-20T06:08:47;23.10;47.70
1680;DHT22;838;51.794;12.258;2023-08-20T06:11:13;23.10;49.40
1680;DHT22;838;51.794;12.258;2023-08-20T06:13:38;23.20;49.10
1680;DHT22;838;51.794;12.258;2023-08-20T06:16:06;23.10;45.10
1680;DHT22;838;51.794;12.258;2023-08-20T06:18:32;23.10;47.90
1680;DHT22;838;51.794;12.258;2023-08-20T06:20:58;23.10;45.80
1680;DHT22;838;51.794;12.258;2023-08-20T06:23:23;23.20;45.00
1680;DHT22;838;51.794;12.258;2023-08-20T06:25:50;23.20;47.50
1680;DHT22;838;51.794;12.258;2023-08-20T06:28:16;23.20;49.60
1680;DHT22;838;51.794;12.258;2023-08-20T06:30:42;23.50;49.30
1680;DHT22;838;51.794;12.258;2023-08-20T06:33:08;23.80;44.90
1680;DHT22;838;51.794;12.258;2023-08-20T06:35:37;23.80;43.50
1680;DHT22;838;51.794;12.258;2023-08-20T06:38:03;23.80;42.00
1680;DHT22;838;51.794;12.258;2023-08-20T06:40:30;23.70;41.70
1680;DHT22;838;51.794;12.258;2023-08-20T06:42:55;23.90;41.60
1680;DHT22;838;51.794;12.258;2023-08-20T06:45:21;24.00;40.40
1680;DHT22;838;51.794;12.258;2023-08-20T06:47:47;24.00;36.90
1680;DHT22;838;51.794;12.258;2023-08-20T06:50:12;23.90;36.90
1680;DHT22;838;51.794;12.258;2023-08-20T06:52:38;23.80;37.40
1680;DHT22;838;51.794;12.258;2023-08-20T06:55:04;23.70;41.20
1680;DHT22;838;51.794;12.258;2023-08-20T06:57:30;23.70;44.00
1680;DHT22;838;51.794;12.258;2023-08-20T06:59:56;23.60;46.00
1680;DHT22;838;51.794;12.258;2023-08-20T07:02:21;23.80;47.20
1680;DHT22;838;51.794;12.258;2023-08-20T07:04:47;24.10;44.10
1680;DHT22;838;51.794;12.258;2023-08-20T07:07:13;24.20;44.40
1680;DHT22;838;51.794;12.258;2023-08-20T07:09:40;24.10;42.80
1680;DHT22;838;51.794;12.258;2023-08-20T07:12:06;24.00;43.60
1680;DHT22;838;51.794;12.258;2023-08-20T07:14:32;24.10;43.20
1680;DHT22;838;51.794;12.258;2023-08-20T07:16:58;24.10;38.80
1680;DHT22;838;51.794;12.258;2023-08-20T07:19:25;24.30;40.80
1680;DHT22;838;51.794;12.258;2023-08-20T07:21:51;24.60;38.20
1680;DHT22;838;51.794;12.258;2023-08-20T07:24:20;24.70;34.80
1680;DHT22;838;51.794;12.258;2023-08-20T07:26:51;24.90;35.20
1680;DHT22;838;51.794;12.258;2023-08-20T07:29:17;25.20;31.30
1680;DHT22;838;51.794;12.258;2023-08-20T07:31:42;25.10;31.00
1680;DHT22;838;51.794;12.258;2023-08-20T07:34:08;25.00;29.50
1680;DHT22;838;51.794;12.258;2023-08-20T07:36:34;24.80;31.10
1680;DHT22;838;51.794;12.258;2023-08-20T07:39:00;24.60;32.50
1680;DHT22;838;51.794;12.258;2023-08-20T07:41:26;24.50;33.50
1680;DHT22;838;51.794;12.258;2023-08-20T07:43:52;24.50;32.70
1680;DHT22;838;51.794;12.258;2023-08-20T07:46:18;24.50;31.60
1680;DHT22;838;51.794;12.258;2023-08-20T07:48:44;24.60;30.80
1680;DHT22;838;51.794;12.258;2023-08-20T07:51:10;24.50;32.10
1680;DHT22;838;51.794;12.258;2023-08-20T07:53:36;24.50;35.10
1680;DHT22;838;51.794;12.258;2023-08-20T07:56:01;24.80;33.00
1680;DHT22;838;51.794;12.258;2023-08-20T07:58:27;25.00;30.50
1680;DHT22;838;51.794;12.258;2023-08-20T08:00:54;25.10;28.10
1680;DHT22;838;51.794;12.258;2023-08-20T08:03:19;24.90;27.00
1680;DHT22;838;51.794;12.258;2023-08-20T08:05:49;25.10;28.20
1680;DHT22;838;51.794;12.258;2023-08-20T08:08:16;25.10;26.70
1680;DHT22;838;51.794;12.258;2023-08-20T08:10:42;25.20;25.80
1680;DHT22;838;51.794;12.258;2023-08-20T08:13:13;25.40;26.20
1680;DHT22;838;51.794;12.258;2023-08-20T08:15:39;25.30;24.10
1680;DHT22;838;51.794;12.258;2023-08-20T08:18:06;25.30;24.60
1680;DHT22;838;51.794;12.258;2023-08-20T08:20:32;25.60;22.80
1680;DHT22;838;51.794;12.258;2023-08-20T08:22:58;25.80;18.30
1680;DHT22;838;51.794;12.258;2023-08-20T08:25:23;25.80;20.00
1680;DHT22;838;51.794;12.258;2023-08-20T08:27:49;25.90;18.80
1680;DHT22;838;51.794;12.258;2023-08-20T08:30:15;25.70;17.90
1680;DHT22;838;51.794;12.258;2023-08-20T08:32:41;25.60;14.40
1680;DHT22;838;51.794;12.258;2023-08-20T08:35:07;25.50;17.40
1680;DHT22;838;51.794;12.258;2023-08-20T08:37:33;25.70;14.40
1680;DHT22;838;51.794;12.258;2023-08-20T08:39:59;26.00;16.00
1680;DHT22;838;51.794;12.258;2023-08-20T08:42:25;26.50;11.00
1680;DHT22;838;51.794;12.258;2023-08-20T08:44:52;27.30;8.50
1680;DHT22;838;51.794;12.258;2023-08-20T08:47:22;27.80;7.90
1680;DHT22;838;51.794;12.258;2023-08-20T08:49:48;28.70;1.00
1680;DHT22;838;51.794;12.258;2023-08-20T08:52:14;28.30;1.00
1680;DHT22;838;51.794;12.258;2023-08-20T08:54:41;27.70;2.40
1680;DHT22;838;51.794;12.258;2023-08-20T08:57:07;27.60;5.10
1680;DHT22;838;51.794;12.258;2023-08-20T08:59:33;28.20;1.00
1680;DHT22;838;51.794;12.258;2023-08-20T09:01:59;29.40;1.00
1680;DHT22;838;51.794;12.258;2023-08-20T09:04:25;29.90;1.00
1680;DHT22;838;51.794;12.258;2023-08-20T09:06:53;31.30;1.00
1680;DHT22;838;51.794;12.258;2023-08-20T09:09:21;31.50;1.00
1680;DHT22;838;51.794;12.258;2023-08-20T09:11:48;32.30;1.00
1680;DHT22;838;51.794;12.258;2023-08-20T09:14:27;31.80;1.00
1680;DHT22;838;51.794;12.258;2023-08-20T09:16:57;32.90;1.00
1680;DHT22;838;51.794;12.258;2023-08-20T09:19:23;34.50;1.00
1680;DHT22;838;51.794;12.258;2023-08-20T09:21:49;34.70;1.00
1680;DHT22;838;51.794;12.258;2023-08-20T09:24:15;33.80;1.00
1680;DHT22;838;51.794;12.258;2023-08-20T09:26:50;33.60;1.00
1680;DHT22;838;51.794;12.258;2023-08-20T09:29:21;34.30;1.00
1680;DHT22;838;51.794;12.258;2023-08-20T09:31:47;35.70;1.00
1680;DHT22;838;51.794;12.258;2023-08-20T09:34:13;35.90;1.00
1680;DHT22;838;51.794;12.258;2023-08-20T09:36:39;36.30;1.00
1680;DHT22;838;51.794;12.258;2023-08-20T09:39:05;36.30;1.00
1680;DHT22;838;51.794;12.258;2023-08-20T09:41:30;35.60;1.00
1680;DHT22;838;51.794;12.258;2023-08-20T09:43:58;35.30;1.00
1680;DHT22;838;51.794;12.258;2023-08-20T09:46:26;34.40;1.00
1680;DHT22;838;51.794;12.258;2023-08-20T09:48:55;34.30;1.00
1680;DHT22;838;51.794;12.258;2023-08-20T09:51:27;34.80;1.00
1680;DHT22;838;51.794;12.258;2023-08-20T09:56:30;34.60;1.00
1680;DHT22;838;51.794;12.258;2023-08-20T09:58:57;33.20;1.00
1680;DHT22;838;51.794;12.258;2023-08-20T10:01:25;32.40;1.00
1680;DHT22;838;51.794;12.258;2023-08-20T10:03:50;31.00;1.00
1680;DHT22;838;51.794;12.258;2023-08-20T10:06:17;29.50;1.00
1680;DHT22;838;51.794;12.258;2023-08-20T10:08:44;29.10;1.00
1680;DHT22;838;51.794;12.258;2023-08-20T10:11:12;29.30;1.00
1680;DHT22;838;51.794;12.258;2023-08-20T10:13:38;29.80;1.00
1680;DHT22;838;51.794;12.258;2023-08-20T10:16:04;29.90;1.00
1680;DHT22;838;51.794;12.258;2023-08-20T10:18:31;29.40;1.00
1680;DHT22;838;51.794;12.258;2023-08-20T10:21:01;29.10;1.00
1680;DHT22;838;51.794;12.258;2023-08-20T10:23:26;29.10;1.00
1680;DHT22;838;51.794;12.258;2023-08-20T10:25:53;29.40;1.00
1680;DHT22;838;51.794;12.258;2023-08-20T10:28:21;29.40;1.00
1680;DHT22;838;51.794;12.258;2023-08-20T10:31:09;29.70;1.00
1680;DHT22;838;51.794;12.258;2023-08-20T10:33:38;30.10;1.00
1680;DHT22;838;51.794;12.258;2023-08-20T10:36:09;30.40;1.00
1680;DHT22;838;51.794;12.258;2023-08-20T10:38:38;30.70;1.00
1680;DHT22;838;51.794;12.258;2023-08-20T10:41:08;31.10;1.00
1680;DHT22;838;51.794;12.258;2023-08-20T10:43:35;31.30;1.00
1680;DHT22;838;51.794;12.258;2023-08-20T10:48:32;30.80;1.00
1680;DHT22;838;51.794;12.258;2023-08-20T10:51:13;30.40;1.00
1680;DHT22;838;51.794;12.258;2023-08-20T10:53:41;30.40;1.00
1680;DHT22;838;51.794;12.258;2023-08-20T10:56:16;30.40;1.00
1680;DHT22;838;51.794;12.258;2023-08-20T10:58:45;30.60;1.00
1680;DHT22;838;51.794;12.258;2023-08-20T11:01:21;30.50;1.00
1680;DHT22;838;51.794;12.258;2023-08-20T11:03:49;30.00;1.00
1680;DHT22;838;51.794;12.258;2023-08-20T11:06:16;29.80;1.00
1680;DHT22;838;51.794;12.258;2023-08-20T11:08:42;29.60;1.00
1680;DHT22;838;51.794;12.258;2023-08-20T11:11:10;29.70;1.00
1680;DHT22;838;51.794;12.258;2023-08-20T11:13:37;29.70;1.00
1680;DHT22;838;51.794;12.258;2023-08-20T11:16:04;30.00;1.00
1680;DHT22;838;51.794;12.258;2023-08-20T11:18:32;30.50;1.00
1680;DHT22;838;51.794;12.258;2023-08-20T11:20:59;30.90;1.00
1680;DHT22;838;51.794;12.258;2023-08-20T11:23:25;30.70;1.00
1680;DHT22;838;51.794;12.258;2023-08-20T11:25:51;30.60;1.00
1680;DHT22;838;51.794;12.258;2023-08-20T11:28:17;30.40;1.00
1680;DHT22;838;51.794;12.258;2023-08-20T11:30:43;30.50;1.00
1680;DHT22;838;51.794;12.258;2023-08-20T11:33:09;31.00;1.00
1680;DHT22;838;51.794;12.258;2023-08-20T11:35:35;31.20;1.00
1680;DHT22;838;51.794;12.258;2023-08-20T11:38:02;31.40;1.00
1680;DHT22;838;51.794;12.258;2023-08-20T11:40:28;30.90;1.00
1680;DHT22;838;51.794;12.258;2023-08-20T11:42:54;30.80;1.00
1680;DHT22;838;51.794;12.258;2023-08-20T11:45:20;31.10;1.00
1680;DHT22;838;51.794;12.258;2023-08-20T11:47:45;31.40;1.00
1680;DHT22;838;51.794;12.258;2023-08-20T11:50:11;31.40;1.00
1680;DHT22;838;51.794;12.258;2023-08-20T11:52:37;31.40;1.00
1680;DHT22;838;51.794;12.258;2023-08-20T11:55:05;31.10;1.00
1680;DHT22;838;51.794;12.258;2023-08-20T11:57:32;30.60;1.00
1680;DHT22;838;51.794;12.258;2023-08-20T12:00:05;30.90;1.00
1680;DHT22;838;51.794;12.258;2023-08-20T12:02:34;31.40;1.00
1680;DHT22;838;51.794;12.258;2023-08-20T12:05:00;31.80;1.00
1680;DHT22;838;51.794;12.258;2023-08-20T12:07:26;31.90;1.00
1680;DHT22;838;51.794;12.258;2023-08-20T12:09:53;31.10;1.00
1680;DHT22;838;51.794;12.258;2023-08-20T12:12:20;30.90;1.00
1680;DHT22;838;51.794;12.258;2023-08-20T12:14:47;30.30;1.00
1680;DHT22;838;51.794;12.258;2023-08-20T12:17:16;30.20;1.00
1680;DHT22;838;51.794;12.258;2023-08-20T12:19:42;30.20;1.00
1680;DHT22;838;51.794;12.258;2023-08-20T12:22:07;30.40;1.00
1680;DHT22;838;51.794;12.258;2023-08-20T12:24:34;30.60;1.00
1680;DHT22;838;51.794;12.258;2023-08-20T12:26:59;30.70;1.00
1680;DHT22;838;51.794;12.258;2023-08-20T12:29:25;31.10;1.00
1680;DHT22;838;51.794;12.258;2023-08-20T12:31:51;30.80;1.00
1680;DHT22;838;51.794;12.258;2023-08-20T12:34:17;30.50;1.00
1680;DHT22;838;51.794;12.258;2023-08-20T12:36:42;30.30;1.00
1680;DHT22;838;51.794;12.258;2023-08-20T12:39:08;29.90;1.00
1680;DHT22;838;51.794;12.258;2023-08-20T12:41:34;30.20;1.00
1680;DHT22;838;51.794;12.258;2023-08-20T12:44:04;30.20;1.00
1680;DHT22;838;51.794;12.258;2023-08-20T12:46:30;30.00;1.00
1680;DHT22;838;51.794;12.258;2023-08-20T12:48:55;30.10;1.00
1680;DHT22;838;51.794;12.258;2023-08-20T12:51:21;30.10;1.00
1680;DHT22;838;51.794;12.258;2023-08-20T12:53:48;30.30;1.00
1680;DHT22;838;51.794;12.258;2023-08-20T12:56:14;30.60;1.00
1680;DHT22;838;51.794;12.258;2023-08-20T12:58:41;30.80;1.00
1680;DHT22;838;51.794;12.258;2023-08-20T13:01:07;30.80;1.00
1680;DHT22;838;51.794;12.258;2023-08-20T13:03:33;30.80;1.00
1680;DHT22;838;51.794;12.258;2023-08-20T13:05:59;30.90;1.00
1680;DHT22;838;51.794;12.258;2023-08-20T13:08:25;30.50;1.00
1680;DHT22;838;51.794;12.258;2023-08-20T13:10:56;30.40;1.00
1680;DHT22;838;51.794;12.258;2023-08-20T13:13:23;30.80;1.00
1680;DHT22;838;51.794;12.258;2023-08-20T13:15:51;31.10;1.00
1680;DHT22;838;51.794;12.258;2023-08-20T13:18:17;30.90;1.00
1680;DHT22;838;51.794;12.258;2023-08-20T13:20:43;30.60;1.00
1680;DHT22;838;51.794;12.258;2023-08-20T13:23:09;30.70;1.00
1680;DHT22;838;51.794;12.258;2023-08-20T13:25:35;30.40;1.00
1680;DHT22;838;51.794;12.258;2023-08-20T13:28:01;30.40;1.00
1680;DHT22;838;51.794;12.258;2023-08-20T13:30:27;30.50;1.00
1680;DHT22;838;51.794;12.258;2023-08-20T13:32:53;30.60;1.00
1680;DHT22;838;51.794;12.258;2023-08-20T13:35:18;30.60;1.00
1680;DHT22;838;51.794;12.258;2023-08-20T13:37:44;30.50;1.00
1680;DHT22;838;51.794;12.258;2023-08-20T13:40:11;30.60;1.00
1680;DHT22;838;51.794;12.258;2023-08-20T13:42:36;30.80;1.00
1680;DHT22;838;51.794;12.258;2023-08-20T13:45:02;31.10;1.00
1680;DHT22;838;51.794;12.258;2023-08-20T13:47:29;31.10;1.00
1680;DHT22;838;51.794;12.258;2023-08-20T13:49:55;30.90;1.00
1680;DHT22;838;51.794;12.258;2023-08-20T13:52:20;31.10;1.00
1680;DHT22;838;51.794;12.258;2023-08-20T13:54:46;31.40;1.00
1680;DHT22;838;51.794;12.258;2023-08-20T13:57:12;31.60;1.00
1680;DHT22;838;51.794;12.258;2023-08-20T13:59:38;31.70;1.00
1680;DHT22;838;51.794;12.258;2023-08-20T14:02:04;31.90;1.00
1680;DHT22;838;51.794;12.258;2023-08-20T14:04:30;31.90;1.00
1680;DHT22;838;51.794;12.258;2023-08-20T14:06:56;32.10;1.00
1680;DHT22;838;51.794;12.258;2023-08-20T14:09:22;32.30;1.00
1680;DHT22;838;51.794;12.258;2023-08-20T14:11:48;32.10;1.00
1680;DHT22;838;51.794;12.258;2023-08-20T14:14:13;31.80;1.00
1680;DHT22;838;51.794;12.258;2023-08-20T14:16:39;31.50;1.00
1680;DHT22;838;51.794;12.258;2023-08-20T14:19:05;31.40;1.00
1680;DHT22;838;51.794;12.258;2023-08-20T14:21:31;31.40;1.00
1680;DHT22;838;51.794;12.258;2023-08-20T14:23:56;31.10;1.00
1680;DHT22;838;51.794;12.258;2023-08-20T14:26:22;31.10;1.00
1680;DHT22;838;51.794;12.258;2023-08-20T14:28:49;31.20;1.00
1680;DHT22;838;51.794;12.258;2023-08-20T14:31:14;31.30;1.00
1680;DHT22;838;51.794;12.258;2023-08-20T14:33:40;31.40;1.00
1680;DHT22;838;51.794;12.258;2023-08-20T14:36:06;31.40;1.00
1680;DHT22;838;51.794;12.258;2023-08-20T14:38:32;31.40;1.00
1680;DHT22;838;51.794;12.258;2023-08-20T14:41:01;31.10;1.00
1680;DHT22;838;51.794;12.258;2023-08-20T14:43:28;31.00;1.00
1680;DHT22;838;51.794;12.258;2023-08-20T14:45:54;31.00;1.00
1680;DHT22;838;51.794;12.258;2023-08-20T14:48:23;30.90;1.00
1680;DHT22;838;51.794;12.258;2023-08-20T14:50:50;31.00;1.00
1680;DHT22;838;51.794;12.258;2023-08-20T14:53:16;30.40;1.00
1680;DHT22;838;51.794;12.258;2023-08-20T14:55:43;30.20;1.00
1680;DHT22;838;51.794;12.258;2023-08-20T14:58:09;30.20;1.00
1680;DHT22;838;51.794;12.258;2023-08-20T15:00:35;30.40;1.00
1680;DHT22;838;51.794;12.258;2023-08-20T15:03:01;30.70;1.00
1680;DHT22;838;51.794;12.258;2023-08-20T15:05:29;30.30;1.00
1680;DHT22;838;51.794;12.258;2023-08-20T15:07:55;30.30;1.00
1680;DHT22;838;51.794;12.258;2023-08-20T15:10:20;30.30;1.00
1680;DHT22;838;51.794;12.258;2023-08-20T15:12:46;30.50;1.00
1680;DHT22;838;51.794;12.258;2023-08-20T15:15:12;30.50;1.00
1680;DHT22;838;51.794;12.258;2023-08-20T15:17:38;30.60;1.00
1680;DHT22;838;51.794;12.258;2023-08-20T15:20:04;30.90;1.00
1680;DHT22;838;51.794;12.258;2023-08-20T15:22:39;30.90;1.00
1680;DHT22;838;51.794;12.258;2023-08-20T15:25:06;30.80;1.00
1680;DHT22;838;51.794;12.258;2023-08-20T15:27:36;30.90;1.00
1680;DHT22;838;51.794;12.258;2023-08-20T15:30:03;31.10;1.00
1680;DHT22;838;51.794;12.258;2023-08-20T15:32:29;31.20;1.00
1680;DHT22;838;51.794;12.258;2023-08-20T15:34:55;31.30;1.00
1680;DHT22;838;51.794;12.258;2023-08-20T15:37:21;30.60;1.00
1680;DHT22;838;51.794;12.258;2023-08-20T15:39:47;30.50;1.00
1680;DHT22;838;51.794;12.258;2023-08-20T15:42:13;30.70;1.00
1680;DHT22;838;51.794;12.258;2023-08-20T15:44:39;30.90;1.00
1680;DHT22;838;51.794;12.258;2023-08-20T15:47:05;30.80;1.00
1680;DHT22;838;51.794;12.258;2023-08-20T15:49:32;30.60;1.00
1680;DHT22;838;51.794;12.258;2023-08-20T15:51:58;30.50;1.00
1680;DHT22;838;51.794;12.258;2023-08-20T15:54:23;30.50;1.00
1680;DHT22;838;51.794;12.258;2023-08-20T15:56:51;30.40;1.00
1680;DHT22;838;51.794;12.258;2023-08-20T15:59:17;30.50;1.00
1680;DHT22;838;51.794;12.258;2023-08-20T16:01:43;30.50;1.00
1680;DHT22;838;51.794;12.258;2023-08-20T16:04:09;30.40;1.00
1680;DHT22;838;51.794;12.258;2023-08-20T16:06:35;30.60;1.00
1680;DHT22;838;51.794;12.258;2023-08-20T16:09:01;30.70;1.00
1680;DHT22;838;51.794;12.258;2023-08-20T16:11:26;30.40;1.00
1680;DHT22;838;51.794;12.258;2023-08-20T16:13:53;30.20;1.00
1680;DHT22;838;51.794;12.258;2023-08-20T16:16:18;30.20;1.00